Austin Straubel International Airport Green Bay US
ICAO: KGRB
IATA: GRB
Category: Large
Scheduled Services: Yes

Elevation: 695 ft
TransAlt. 18000 ft.

Airport Communications:
GREEN BAY APP:119.4
ATIS:124.1
CLNC DEL:121.75
CTAF:118.7
GREEN BAY DEP:126.55
GND:121.9
GREEN BAY RDO:122.2
GREEN BAY TWR:118.7
UNICOM:122.95

KGRB Zoom In..

Runways:

(A) RW 06 length 7699 ft width 150 ft
ILS 109.50 / hdg 62

(B) RW 18 length 8699 ft width 150 ft
---- / hdg 182

(C) RW 24 length 7699 ft width 150 ft
---- / hdg 242

(D) RW 36 length 8699 ft width 150 ft
ILS 109.90 / hdg 2

Location; KGRB
Day. 21 / Time. 05.53 Zulu
* Altimeter: 29.75
* Temperature: 20° c. 68°f.
* Wind from: 020° Speed 12 kn.
Dewpoint: 19° c.
Visibility: 10 Statute Miles.
Clouds: Few 1100 ft.
Clouds: Few 1700 ft.

KGRB 210553Z AUTO 02012KT 10SM FEW011 FEW017 20/19 A2975 RMK AO2 SLP073 60035 T02000189 10228 20194 402610194 51007


Wind From 020°
Speed 12 kn.

 
 
jpsmedia.com for Web Design worldairports.se 2018   terms of use